Unionville, Louisiana
Current Conditions -  °F | °C
As of 1:35 PM on Friday 28 Nov 2014 (Local Time) from KRSN Reporting Station
Clear Clear  
Wind Chill: 61°   Ceiling: Unl
Heat Index: 61°   Visibility: 10mi
Dew Point: 33°   Wind: 7mph
Humidity: 35%   Direction: 210°SSW
Pressure: 30.28"   Gusts: NA
Location:  32.6988°N, 92.6981°W
Report Text: KRSN 281935Z AUTO 21006KT 10SM CLR 16/01 A3028 RMK AO2 T01600006
Loading
Personal Weather Stations






























Interactive Weather Map New forecast layout! Learn more

10-Day Weather Forecast

Advertisements
Track Severe Weather on mobile